createdAt,value
2019-06-08T00:00:49.223Z,21.92
2019-06-08T00:03:22.800Z,21.81
2019-06-08T00:08:40.044Z,21.74
2019-06-08T00:11:13.234Z,21.74
2019-06-08T00:13:46.285Z,21.74
2019-06-08T00:16:19.630Z,21.71
2019-06-08T00:18:52.822Z,21.71
2019-06-08T00:21:26.288Z,21.68
2019-06-08T00:23:59.583Z,21.66
2019-06-08T00:26:34.003Z,21.66
2019-06-08T00:29:07.287Z,21.64
2019-06-08T00:31:41.927Z,21.62
2019-06-08T00:34:15.023Z,21.57
2019-06-08T00:36:47.963Z,21.56
2019-06-08T00:39:20.997Z,21.55
2019-06-08T00:41:54.216Z,21.61
2019-06-08T00:44:30.759Z,21.65
2019-06-08T00:47:03.755Z,21.67
2019-06-08T00:49:36.922Z,21.63
2019-06-08T00:52:11.385Z,21.56
2019-06-08T00:54:44.467Z,21.52
2019-06-08T00:57:17.683Z,21.48
2019-06-08T00:59:50.486Z,21.44
2019-06-08T01:02:24.606Z,21.39
2019-06-08T01:04:57.966Z,21.30
2019-06-08T01:07:31.364Z,21.22
2019-06-08T01:10:07.822Z,21.13
2019-06-08T01:15:32.706Z,21.14
2019-06-08T01:18:04.228Z,21.19
2019-06-08T01:20:37.539Z,21.18
2019-06-08T01:23:11.437Z,21.20
2019-06-08T01:28:30.281Z,21.27
2019-06-08T01:31:03.459Z,21.34
2019-06-08T01:33:36.698Z,21.39
2019-06-08T01:36:10.352Z,21.39
2019-06-08T01:38:43.459Z,21.36
2019-06-08T01:41:16.664Z,21.39
2019-06-08T01:43:50.188Z,21.45
2019-06-08T01:46:23.827Z,21.47
2019-06-08T01:48:57.927Z,21.47
2019-06-08T01:51:31.113Z,21.38
2019-06-08T01:54:04.684Z,21.33
2019-06-08T01:56:38.823Z,21.34
2019-06-08T01:59:12.089Z,21.35
2019-06-08T02:01:45.155Z,21.37
2019-06-08T02:04:18.270Z,21.38
2019-06-08T02:06:52.329Z,21.37
2019-06-08T02:09:26.512Z,21.38
2019-06-08T02:11:59.774Z,21.37
2019-06-08T02:14:33.244Z,21.40
2019-06-08T02:17:07.647Z,21.42
2019-06-08T02:19:40.708Z,21.45
2019-06-08T02:22:14.683Z,21.45
2019-06-08T02:24:48.085Z,21.41
2019-06-08T02:27:21.947Z,21.39
2019-06-08T02:29:56.253Z,21.45
2019-06-08T02:32:31.597Z,21.45
2019-06-08T02:35:07.449Z,21.42
2019-06-08T02:37:40.923Z,21.40
2019-06-08T02:40:15.154Z,21.38
2019-06-08T02:42:48.564Z,21.38
2019-06-08T02:45:21.705Z,21.42
2019-06-08T02:47:55.735Z,21.47
2019-06-08T02:51:00.573Z,21.46
2019-06-08T02:53:35.951Z,21.38
2019-06-08T02:56:14.781Z,21.33
2019-06-08T02:58:47.990Z,21.34
2019-06-08T03:01:21.980Z,21.40
2019-06-08T03:03:55.426Z,21.43
2019-06-08T03:06:30.297Z,21.46
2019-06-08T03:09:07.719Z,21.45
2019-06-08T03:11:41.760Z,21.45
2019-06-08T03:14:14.982Z,21.45
2019-06-08T03:16:48.371Z,21.50
2019-06-08T03:22:10.988Z,21.49
2019-06-08T03:24:44.284Z,21.45
2019-06-08T03:27:17.200Z,21.43
2019-06-08T03:29:50.445Z,21.45
2019-06-08T03:32:47.106Z,21.45
2019-06-08T03:35:12.806Z,21.45
2019-06-08T03:37:46.008Z,21.47
2019-06-08T03:40:19.060Z,21.48
2019-06-08T03:42:53.224Z,21.55
2019-06-08T03:45:28.127Z,21.66
2019-06-08T03:48:01.184Z,21.74
2019-06-08T03:50:35.530Z,21.81
2019-06-08T03:53:10.811Z,21.85
2019-06-08T03:55:45.447Z,21.91
2019-06-08T03:58:19.970Z,21.96
2019-06-08T04:00:53.712Z,22.01
2019-06-08T04:03:27.608Z,22.02
2019-06-08T04:06:00.819Z,22.09
2019-06-08T04:08:34.112Z,22.13
2019-06-08T04:11:09.408Z,22.17
2019-06-08T04:13:44.359Z,22.19
2019-06-08T04:16:17.201Z,22.28
2019-06-08T04:18:52.395Z,22.35
2019-06-08T04:21:25.368Z,22.36
2019-06-08T04:23:59.698Z,22.42
2019-06-08T04:26:32.902Z,22.45
2019-06-08T04:29:06.242Z,22.50
2019-06-08T04:31:39.820Z,22.56
2019-06-08T04:34:13.374Z,22.67
2019-06-08T04:36:48.578Z,22.77
2019-06-08T04:39:21.900Z,22.83
2019-06-08T04:41:55.011Z,22.88
2019-06-08T04:44:28.559Z,22.94
2019-06-08T04:47:02.003Z,23.01
2019-06-08T04:49:35.415Z,23.08
2019-06-08T04:52:09.266Z,23.13
2019-06-08T04:54:45.073Z,23.20
2019-06-08T04:57:17.916Z,23.25
2019-06-08T04:59:50.889Z,23.26
2019-06-08T05:02:46.971Z,23.26
2019-06-08T05:05:20.733Z,23.38
2019-06-08T05:07:53.791Z,23.55
2019-06-08T05:10:26.925Z,23.60
2019-06-08T05:13:00.199Z,23.67
2019-06-08T05:15:36.256Z,23.76
2019-06-08T05:18:09.415Z,23.79
2019-06-08T05:20:45.373Z,23.87
2019-06-08T05:23:17.821Z,23.95
2019-06-08T05:25:50.987Z,24.01
2019-06-08T05:28:24.074Z,24.13
2019-06-08T05:30:57.639Z,24.25
2019-06-08T05:33:30.897Z,24.35
2019-06-08T05:36:03.965Z,24.40
2019-06-08T05:38:37.254Z,24.45
2019-06-08T05:41:10.301Z,24.44
2019-06-08T05:43:43.652Z,24.52
2019-06-08T05:46:17.409Z,24.66
2019-06-08T05:48:50.510Z,24.77
2019-06-08T05:51:24.633Z,24.82
2019-06-08T05:53:57.705Z,24.85
2019-06-08T05:56:31.342Z,24.88
2019-06-08T05:59:04.386Z,24.91
2019-06-08T06:01:37.349Z,24.95
2019-06-08T06:04:10.452Z,24.95
2019-06-08T06:06:46.617Z,24.95
2019-06-08T06:09:20.163Z,24.96
2019-06-08T06:11:53.203Z,25.00
2019-06-08T06:14:28.520Z,25.03
2019-06-08T06:17:12.421Z,25.05
2019-06-08T06:19:45.515Z,25.07
2019-06-08T06:22:18.605Z,25.12
2019-06-08T06:24:51.935Z,25.09
2019-06-08T06:27:24.979Z,25.12
2019-06-08T06:29:58.319Z,25.16
2019-06-08T06:32:31.863Z,25.17
2019-06-08T06:35:07.261Z,25.15
2019-06-08T06:37:41.842Z,25.12
2019-06-08T06:40:15.092Z,25.12
2019-06-08T06:42:48.154Z,25.15
2019-06-08T06:45:21.345Z,25.14
2019-06-08T06:47:54.716Z,25.17
2019-06-08T06:50:28.253Z,25.21
2019-06-08T06:53:01.546Z,25.26
2019-06-08T06:55:36.156Z,25.30
2019-06-08T06:58:09.507Z,25.35
2019-06-08T07:00:43.237Z,25.37
2019-06-08T07:03:16.531Z,25.41
2019-06-08T07:05:50.022Z,25.49
2019-06-08T07:08:23.203Z,25.58
2019-06-08T07:10:57.115Z,25.68
2019-06-08T07:13:30.375Z,25.74
2019-06-08T07:16:17.983Z,25.95
2019-06-08T07:18:39.764Z,25.95
2019-06-08T07:21:13.972Z,26.06
2019-06-08T07:23:49.870Z,26.15
2019-06-08T07:26:24.076Z,26.26
2019-06-08T07:28:58.861Z,26.32
2019-06-08T07:31:32.155Z,26.37
2019-06-08T07:34:05.307Z,26.45
2019-06-08T07:36:51.216Z,26.54
2019-06-08T07:39:24.401Z,26.66
2019-06-08T07:41:57.834Z,26.78
2019-06-08T07:44:30.995Z,26.88
2019-06-08T07:47:04.420Z,26.98
2019-06-08T07:49:37.645Z,27.05
2019-06-08T07:52:11.871Z,27.09
2019-06-08T07:54:44.932Z,27.08
2019-06-08T07:57:19.327Z,27.12
2019-06-08T07:59:53.196Z,27.19
2019-06-08T08:02:28.351Z,27.31
2019-06-08T08:05:01.527Z,27.38
2019-06-08T08:07:34.742Z,27.40
2019-06-08T08:10:08.774Z,27.42
2019-06-08T08:12:42.010Z,27.48
2019-06-08T08:15:15.092Z,27.59
2019-06-08T08:17:52.259Z,27.66
2019-06-08T08:20:26.897Z,27.75
2019-06-08T08:23:05.792Z,27.87
2019-06-08T08:25:34.838Z,27.96
2019-06-08T08:28:12.493Z,28.07
2019-06-08T08:30:48.082Z,28.24
2019-06-08T08:33:20.827Z,28.38
2019-06-08T08:35:54.093Z,28.45
2019-06-08T08:38:28.796Z,28.51
2019-06-08T08:41:07.181Z,28.56
2019-06-08T08:43:37.763Z,28.62
2019-06-08T08:46:10.991Z,28.78
2019-06-08T08:48:44.146Z,28.93
2019-06-08T08:51:20.666Z,29.10
2019-06-08T08:53:55.854Z,29.23
2019-06-08T08:56:28.042Z,29.27
2019-06-08T08:59:02.859Z,29.36
2019-06-08T09:01:38.322Z,29.50
2019-06-08T09:04:10.436Z,29.68
2019-06-08T09:06:43.537Z,29.70
2019-06-08T09:09:18.796Z,29.67
2019-06-08T09:11:53.035Z,29.58
2019-06-08T09:14:28.082Z,29.45
2019-06-08T09:17:03.383Z,29.51
2019-06-08T09:19:38.276Z,29.55
2019-06-08T09:22:12.765Z,29.57
2019-06-08T09:24:48.404Z,29.77
2019-06-08T09:27:20.394Z,30.03
2019-06-08T09:29:54.980Z,30.28
2019-06-08T09:32:29.260Z,30.46
2019-06-08T09:35:04.628Z,30.63
2019-06-08T09:37:37.537Z,30.71
2019-06-08T09:40:10.359Z,30.80
2019-06-08T09:42:44.124Z,30.98
2019-06-08T09:45:18.377Z,31.05
2019-06-08T09:47:53.699Z,31.19
2019-06-08T09:50:28.429Z,31.20
2019-06-08T09:53:18.403Z,31.01
2019-06-08T09:55:38.166Z,30.63
2019-06-08T09:58:21.724Z,30.55
2019-06-08T10:00:56.187Z,30.68
2019-06-08T10:03:34.602Z,31.00
2019-06-08T10:06:11.515Z,31.21
2019-06-08T10:08:48.000Z,31.38
2019-06-08T10:11:24.870Z,31.58
2019-06-08T10:14:02.684Z,31.69
2019-06-08T10:16:33.971Z,31.81
2019-06-08T10:19:10.253Z,32.01
2019-06-08T10:21:43.287Z,32.27
2019-06-08T10:24:16.965Z,32.46
2019-06-08T10:27:11.784Z,32.50
2019-06-08T10:29:45.085Z,32.61
2019-06-08T10:32:22.604Z,32.66
2019-06-08T10:34:59.672Z,32.64
2019-06-08T10:37:31.206Z,32.83
2019-06-08T10:40:09.232Z,32.91
2019-06-08T10:42:42.413Z,33.03
2019-06-08T10:45:18.337Z,33.02
2019-06-08T10:47:50.545Z,33.11
2019-06-08T10:50:24.312Z,33.15
2019-06-08T10:53:01.253Z,33.31
2019-06-08T10:55:32.467Z,33.54
2019-06-08T10:58:07.151Z,33.63
2019-06-08T11:00:40.255Z,33.59
2019-06-08T11:03:16.759Z,33.54
2019-06-08T11:05:51.394Z,33.51
2019-06-08T11:08:27.416Z,33.52
2019-06-08T11:11:01.189Z,33.55
2019-06-08T11:13:35.359Z,33.69
2019-06-08T11:16:12.724Z,33.79
2019-06-08T11:18:43.591Z,33.88
2019-06-08T11:21:18.844Z,33.94
2019-06-08T11:24:05.773Z,34.01
2019-06-08T11:26:28.688Z,33.99
2019-06-08T11:29:02.865Z,34.02
2019-06-08T11:31:35.326Z,33.98
2019-06-08T11:34:08.674Z,34.08
2019-06-08T11:36:43.264Z,34.19
2019-06-08T11:39:18.549Z,34.29
2019-06-08T11:41:51.189Z,34.26
2019-06-08T11:44:24.349Z,34.35
2019-06-08T11:47:02.519Z,34.42
2019-06-08T11:49:35.752Z,34.43
2019-06-08T11:52:09.087Z,34.45
2019-06-08T11:54:43.767Z,34.43
2019-06-08T11:57:17.688Z,34.47
2019-06-08T11:59:51.319Z,34.54
2019-06-08T12:02:24.656Z,34.42
2019-06-08T12:04:59.512Z,34.36
2019-06-08T12:07:32.863Z,34.39
2019-06-08T12:10:09.064Z,34.38
2019-06-08T12:12:42.865Z,34.35
2019-06-08T12:15:20.791Z,34.42
2019-06-08T12:17:51.493Z,34.50
2019-06-08T12:20:24.650Z,34.45
2019-06-08T12:22:57.897Z,34.30
2019-06-08T12:25:31.010Z,34.17
2019-06-08T12:28:04.617Z,33.94
2019-06-08T12:30:38.479Z,33.76
2019-06-08T12:33:12.671Z,33.60
2019-06-08T12:35:47.753Z,33.60
2019-06-08T12:38:20.825Z,33.78
2019-06-08T12:40:54.979Z,33.63
2019-06-08T12:43:29.963Z,33.29
2019-06-08T12:46:03.013Z,33.02
2019-06-08T12:48:38.363Z,32.89
2019-06-08T12:51:13.077Z,32.98
2019-06-08T12:53:45.653Z,33.00
2019-06-08T12:56:23.787Z,32.94
2019-06-08T12:58:57.902Z,32.93
2019-06-08T13:01:31.287Z,32.83
2019-06-08T13:04:04.395Z,32.59
2019-06-08T13:06:37.830Z,32.41
2019-06-08T13:09:12.849Z,32.26
2019-06-08T13:11:50.454Z,32.45
2019-06-08T13:14:23.922Z,32.82
2019-06-08T13:16:56.894Z,33.18
2019-06-08T13:19:31.337Z,33.47
2019-06-08T13:22:03.798Z,33.69
2019-06-08T13:24:37.806Z,33.63
2019-06-08T13:27:13.693Z,33.45
2019-06-08T13:29:44.779Z,33.37
2019-06-08T13:32:19.507Z,33.28
2019-06-08T13:34:53.708Z,33.20
2019-06-08T13:37:27.595Z,33.12
2019-06-08T13:40:01.544Z,32.95
2019-06-08T13:42:38.384Z,33.06
2019-06-08T13:45:13.531Z,33.22
2019-06-08T13:47:50.235Z,33.45
2019-06-08T13:50:22.797Z,33.74
2019-06-08T13:52:58.770Z,33.94
2019-06-08T13:55:47.675Z,33.98
2019-06-08T13:58:06.348Z,33.78
2019-06-08T14:00:39.300Z,33.62
2019-06-08T14:03:13.666Z,33.51
2019-06-08T14:05:52.388Z,33.63
2019-06-08T14:08:27.625Z,33.68
2019-06-08T14:11:00.813Z,33.72
2019-06-08T14:13:37.642Z,33.91
2019-06-08T14:16:11.544Z,34.10
2019-06-08T14:18:44.270Z,34.33
2019-06-08T14:21:41.902Z,34.64
2019-06-08T14:24:14.628Z,34.64
2019-06-08T14:26:48.685Z,34.96
2019-06-08T14:29:24.547Z,35.17
2019-06-08T14:31:59.563Z,35.16
2019-06-08T14:34:34.264Z,35.09
2019-06-08T14:37:08.977Z,35.08
2019-06-08T14:39:41.853Z,35.13
2019-06-08T14:42:19.902Z,35.04
2019-06-08T14:44:52.746Z,35.15
2019-06-08T14:47:27.737Z,35.24
2019-06-08T14:50:24.503Z,35.12
2019-06-08T14:52:59.243Z,34.99
2019-06-08T14:55:34.222Z,35.14
2019-06-08T14:58:08.350Z,35.05
2019-06-08T15:00:41.550Z,35.02
2019-06-08T15:03:14.748Z,35.22
2019-06-08T15:05:49.842Z,35.38
2019-06-08T15:08:23.589Z,35.57
2019-06-08T15:10:58.249Z,35.81
2019-06-08T15:13:31.653Z,35.54
2019-06-08T15:16:08.117Z,34.48
2019-06-08T15:18:40.526Z,33.55
2019-06-08T15:21:13.413Z,32.84
2019-06-08T15:23:47.668Z,32.27
2019-06-08T15:26:29.970Z,31.66
2019-06-08T15:28:58.594Z,31.05
2019-06-08T15:31:32.593Z,30.43
2019-06-08T15:34:05.764Z,30.01
2019-06-08T15:36:38.902Z,29.73
2019-06-08T15:39:13.082Z,29.48
2019-06-08T15:41:48.781Z,29.21
2019-06-08T15:44:23.126Z,29.18
2019-06-08T15:46:55.486Z,29.19
2019-06-08T15:49:31.008Z,29.32
2019-06-08T15:52:05.048Z,29.69
2019-06-08T15:54:40.687Z,30.00
2019-06-08T15:57:13.119Z,30.16
2019-06-08T15:59:49.221Z,30.04
2019-06-08T16:02:21.224Z,29.96
2019-06-08T16:04:54.077Z,29.76
2019-06-08T16:07:30.780Z,29.38
2019-06-08T16:10:06.659Z,29.04
2019-06-08T16:12:40.886Z,28.77
2019-06-08T16:15:13.912Z,28.61
2019-06-08T16:17:47.301Z,28.43
2019-06-08T16:20:21.116Z,28.24
2019-06-08T16:22:54.198Z,27.94
2019-06-08T16:25:29.734Z,27.71
2019-06-08T16:28:02.761Z,27.51
2019-06-08T16:30:35.890Z,27.30
2019-06-08T16:33:08.931Z,27.16
2019-06-08T16:35:42.108Z,27.07
2019-06-08T16:38:15.202Z,26.97
2019-06-08T16:40:48.274Z,26.80
2019-06-08T16:43:21.358Z,26.71
2019-06-08T16:45:54.159Z,26.54
2019-06-08T16:48:28.008Z,26.48
2019-06-08T16:51:01.563Z,26.38
2019-06-08T16:53:35.888Z,26.27
2019-06-08T16:56:09.372Z,26.10
2019-06-08T16:58:42.360Z,26.04
2019-06-08T17:01:15.618Z,26.07
2019-06-08T17:03:49.032Z,26.05
2019-06-08T17:06:22.512Z,26.00
2019-06-08T17:08:55.819Z,25.92
2019-06-08T17:11:29.581Z,25.83
2019-06-08T17:14:03.538Z,25.70
2019-06-08T17:16:36.558Z,25.63
2019-06-08T17:22:21.105Z,25.41
2019-06-08T17:24:55.304Z,25.35
2019-06-08T17:27:28.280Z,25.36
2019-06-08T17:30:08.289Z,25.45
2019-06-08T17:32:40.626Z,25.57
2019-06-08T17:35:14.123Z,25.60
2019-06-08T17:37:52.223Z,25.62
2019-06-08T17:40:30.279Z,25.60
2019-06-08T17:43:03.272Z,25.49
2019-06-08T17:45:38.411Z,25.36
2019-06-08T17:48:11.644Z,25.08
2019-06-08T17:50:44.844Z,24.79
2019-06-08T17:53:18.026Z,24.52
2019-06-08T17:55:51.300Z,24.28
2019-06-08T17:58:24.497Z,24.10
2019-06-08T18:00:57.781Z,23.82
2019-06-08T18:03:33.180Z,23.77
2019-06-08T18:06:07.955Z,23.76
2019-06-08T18:08:43.614Z,23.69
2019-06-08T18:11:17.365Z,23.71
2019-06-08T18:13:50.080Z,23.70
2019-06-08T18:16:24.612Z,23.63
2019-06-08T18:18:57.864Z,23.59
2019-06-08T18:21:31.804Z,23.58
2019-06-08T18:24:07.691Z,23.55
2019-06-08T18:26:42.147Z,23.46
2019-06-08T18:29:18.177Z,23.43
2019-06-08T18:31:51.826Z,23.40
2019-06-08T18:34:27.933Z,23.35
2019-06-08T18:36:59.934Z,23.34
2019-06-08T18:39:34.943Z,23.35
2019-06-08T18:42:08.484Z,23.35
2019-06-08T18:44:44.498Z,23.39
2019-06-08T18:47:19.506Z,23.39
2019-06-08T18:49:53.025Z,23.36
2019-06-08T18:52:28.249Z,23.38
2019-06-08T18:55:01.984Z,23.36
2019-06-08T18:57:38.116Z,23.33
2019-06-08T19:00:11.807Z,23.26
2019-06-08T19:02:49.045Z,23.15
2019-06-08T19:05:21.722Z,23.12
2019-06-08T19:07:57.232Z,23.11
2019-06-08T19:10:33.998Z,23.17
2019-06-08T19:13:08.298Z,23.24
2019-06-08T19:15:44.271Z,23.27
2019-06-08T19:18:17.887Z,23.29
2019-06-08T19:20:53.547Z,23.29
2019-06-08T19:23:28.309Z,23.27
2019-06-08T19:26:02.579Z,23.23
2019-06-08T19:28:44.982Z,23.13
2019-06-08T19:31:13.697Z,23.08
2019-06-08T19:33:51.402Z,23.08
2019-06-08T19:36:22.689Z,23.06
2019-06-08T19:38:57.734Z,23.08
2019-06-08T19:41:52.291Z,23.03
2019-06-08T19:44:27.608Z,23.05
2019-06-08T19:47:01.439Z,23.04
2019-06-08T19:49:35.528Z,23.03
2019-06-08T19:52:08.976Z,23.05
2019-06-08T19:54:45.859Z,23.04
2019-06-08T19:57:17.493Z,23.06
2019-06-08T19:59:50.662Z,23.05
2019-06-08T20:02:23.665Z,22.96
2019-06-08T20:04:56.956Z,22.94
2019-06-08T20:07:30.460Z,22.88
2019-06-08T20:10:24.758Z,22.86
2019-06-08T20:12:58.862Z,22.88
2019-06-08T20:15:40.709Z,22.87
2019-06-08T20:18:11.094Z,22.79
2019-06-08T20:20:44.321Z,22.63
2019-06-08T20:23:18.103Z,22.45
2019-06-08T20:25:51.477Z,22.36
2019-06-08T20:28:28.096Z,22.37
2019-06-08T20:31:01.315Z,22.31
2019-06-08T20:33:34.626Z,22.25
2019-06-08T20:36:08.811Z,22.25
2019-06-08T20:38:44.042Z,22.21
2019-06-08T20:41:18.279Z,22.12
2019-06-08T20:43:53.336Z,22.10
2019-06-08T20:46:28.637Z,22.09
2019-06-08T20:49:01.864Z,22.08
2019-06-08T20:51:37.405Z,22.08
2019-06-08T20:54:10.056Z,22.07
2019-06-08T20:56:43.143Z,22.00
2019-06-08T20:59:29.594Z,21.95
2019-06-08T21:01:52.260Z,21.87
2019-06-08T21:04:27.677Z,21.82
2019-06-08T21:07:00.856Z,21.81
2019-06-08T21:09:36.968Z,21.80
2019-06-08T21:12:10.025Z,21.81
2019-06-08T21:14:45.130Z,21.82
2019-06-08T21:17:18.396Z,21.81
2019-06-08T21:19:51.321Z,21.81
2019-06-08T21:22:24.316Z,21.80
2019-06-08T21:24:59.987Z,21.81
2019-06-08T21:27:33.388Z,21.84
2019-06-08T21:30:19.889Z,21.85
2019-06-08T21:32:44.371Z,21.78
2019-06-08T21:35:18.345Z,21.73
2019-06-08T21:37:53.422Z,21.69
2019-06-08T21:40:28.185Z,21.72
2019-06-08T21:43:01.547Z,21.76
2019-06-08T21:45:34.416Z,21.78
2019-06-08T21:48:07.688Z,21.76
2019-06-08T21:50:40.964Z,21.72
2019-06-08T21:53:14.583Z,21.68
2019-06-08T21:55:47.975Z,21.61
2019-06-08T21:58:22.269Z,21.56
2019-06-08T22:00:58.048Z,21.55
2019-06-08T22:03:30.186Z,21.59
2019-06-08T22:06:03.351Z,21.65
2019-06-08T22:08:37.585Z,21.67
2019-06-08T22:11:13.728Z,21.70
2019-06-08T22:13:47.660Z,21.75
2019-06-08T22:16:21.285Z,21.77
2019-06-08T22:18:54.873Z,21.76
2019-06-08T22:21:28.198Z,21.78
2019-06-08T22:24:01.355Z,21.79
2019-06-08T22:26:34.485Z,21.77
2019-06-08T22:29:07.978Z,21.76
2019-06-08T22:31:41.464Z,21.77
2019-06-08T22:34:14.420Z,21.78
2019-06-08T22:36:47.923Z,21.75
2019-06-08T22:39:24.448Z,21.77
2019-06-08T22:41:58.548Z,21.72
2019-06-08T22:44:32.315Z,21.65
2019-06-08T22:47:07.925Z,21.68
2019-06-08T22:49:40.227Z,21.68
2019-06-08T22:52:14.368Z,21.66
2019-06-08T22:54:47.690Z,21.61
2019-06-08T22:57:20.642Z,21.59
2019-06-08T22:59:56.538Z,21.59
2019-06-08T23:02:31.721Z,21.60
2019-06-08T23:05:09.173Z,21.64
2019-06-08T23:07:42.154Z,21.66
2019-06-08T23:10:17.382Z,21.65
2019-06-08T23:12:51.373Z,21.59
2019-06-08T23:15:24.564Z,21.53
2019-06-08T23:17:59.542Z,21.49
2019-06-08T23:20:33.190Z,21.48
2019-06-08T23:23:08.673Z,21.43
2019-06-08T23:25:40.943Z,21.40
2019-06-08T23:28:13.961Z,21.39
2019-06-08T23:30:47.781Z,21.30
2019-06-08T23:33:21.593Z,21.22
2019-06-08T23:36:30.844Z,21.20
2019-06-08T23:38:29.467Z,21.17
2019-06-08T23:41:03.643Z,21.16
2019-06-08T23:43:38.452Z,21.15
2019-06-08T23:46:11.788Z,21.14
2019-06-08T23:48:45.156Z,21.08
2019-06-08T23:51:18.232Z,21.03
2019-06-08T23:53:51.913Z,21.02
2019-06-08T23:56:27.723Z,21.00
2019-06-08T23:59:01.404Z,20.90
